sensor_id;sensor_type;location;lat;lon;timestamp;P1;durP1;ratioP1;P2;durP2;ratioP2
78618;SDS011;67941;52.506;5.470;2023-04-15T00:00:32;2.83;;;0.77;;
78618;SDS011;67941;52.506;5.470;2023-04-15T00:03:01;2.80;;;1.30;;
78618;SDS011;67941;52.506;5.470;2023-04-15T00:05:30;2.08;;;0.95;;
78618;SDS011;67941;52.506;5.470;2023-04-15T00:07:59;1.55;;;0.70;;
78618;SDS011;67941;52.506;5.470;2023-04-15T00:10:28;1.08;;;0.50;;
78618;SDS011;67941;52.506;5.470;2023-04-15T00:12:57;2.47;;;0.80;;
78618;SDS011;67941;52.506;5.470;2023-04-15T00:15:26;3.83;;;0.98;;
78618;SDS011;67941;52.506;5.470;2023-04-15T00:17:57;2.28;;;0.80;;
78618;SDS011;67941;52.506;5.470;2023-04-15T00:20:26;3.00;;;1.65;;
78618;SDS011;67941;52.506;5.470;2023-04-15T00:22:55;3.42;;;0.73;;
78618;SDS011;67941;52.506;5.470;2023-04-15T00:25:24;2.38;;;1.00;;
78618;SDS011;67941;52.506;5.470;2023-04-15T00:27:53;1.30;;;0.50;;
78618;SDS011;67941;52.506;5.470;2023-04-15T00:30:22;4.20;;;1.08;;
78618;SDS011;67941;52.506;5.470;2023-04-15T00:32:51;1.40;;;0.70;;
78618;SDS011;67941;52.506;5.470;2023-04-15T00:35:23;2.65;;;0.80;;
78618;SDS011;67941;52.506;5.470;2023-04-15T00:37:52;3.20;;;0.73;;
78618;SDS011;67941;52.506;5.470;2023-04-15T00:40:22;2.33;;;0.90;;
78618;SDS011;67941;52.506;5.470;2023-04-15T00:42:52;2.42;;;0.77;;
78618;SDS011;67941;52.506;5.470;2023-04-15T00:45:21;1.35;;;0.75;;
78618;SDS011;67941;52.506;5.470;2023-04-15T00:47:50;1.33;;;0.40;;
78618;SDS011;67941;52.506;5.470;2023-04-15T00:50:19;2.15;;;0.80;;
78618;SDS011;67941;52.506;5.470;2023-04-15T00:52:50;3.20;;;1.15;;
78618;SDS011;67941;52.506;5.470;2023-04-15T00:55:19;2.58;;;1.20;;
78618;SDS011;67941;52.506;5.470;2023-04-15T00:57:48;3.97;;;1.02;;
78618;SDS011;67941;52.506;5.470;2023-04-15T01:00:18;1.73;;;0.70;;
78618;SDS011;67941;52.506;5.470;2023-04-15T01:02:47;1.50;;;0.60;;
78618;SDS011;67941;52.506;5.470;2023-04-15T01:05:17;2.63;;;0.55;;
78618;SDS011;67941;52.506;5.470;2023-04-15T01:07:46;1.52;;;0.80;;
78618;SDS011;67941;52.506;5.470;2023-04-15T01:12:47;1.08;;;0.50;;
78618;SDS011;67941;52.506;5.470;2023-04-15T01:15:16;1.30;;;0.77;;
78618;SDS011;67941;52.506;5.470;2023-04-15T01:17:46;2.78;;;0.57;;
78618;SDS011;67941;52.506;5.470;2023-04-15T01:20:15;2.50;;;0.85;;
78618;SDS011;67941;52.506;5.470;2023-04-15T01:22:44;1.98;;;0.80;;
78618;SDS011;67941;52.506;5.470;2023-04-15T01:25:17;2.13;;;1.00;;
78618;SDS011;67941;52.506;5.470;2023-04-15T01:27:50;3.00;;;0.90;;
78618;SDS011;67941;52.506;5.470;2023-04-15T01:30:19;3.58;;;0.60;;
78618;SDS011;67941;52.506;5.470;2023-04-15T01:32:47;3.20;;;0.63;;
78618;SDS011;67941;52.506;5.470;2023-04-15T01:35:36;2.65;;;0.93;;
78618;SDS011;67941;52.506;5.470;2023-04-15T01:38:06;1.50;;;0.63;;
78618;SDS011;67941;52.506;5.470;2023-04-15T01:40:36;5.00;;;1.05;;
78618;SDS011;67941;52.506;5.470;2023-04-15T01:43:09;3.78;;;0.70;;
78618;SDS011;67941;52.506;5.470;2023-04-15T01:45:39;1.38;;;0.60;;
78618;SDS011;67941;52.506;5.470;2023-04-15T01:48:09;1.45;;;0.65;;
78618;SDS011;67941;52.506;5.470;2023-04-15T01:50:39;1.52;;;0.80;;
78618;SDS011;67941;52.506;5.470;2023-04-15T01:53:09;1.42;;;0.50;;
78618;SDS011;67941;52.506;5.470;2023-04-15T01:55:40;2.15;;;0.88;;
78618;SDS011;67941;52.506;5.470;2023-04-15T01:58:17;2.47;;;0.90;;
78618;SDS011;67941;52.506;5.470;2023-04-15T02:00:48;5.60;;;1.42;;
78618;SDS011;67941;52.506;5.470;2023-04-15T02:03:18;1.55;;;0.65;;
78618;SDS011;67941;52.506;5.470;2023-04-15T02:05:48;3.83;;;1.05;;
78618;SDS011;67941;52.506;5.470;2023-04-15T02:08:19;2.65;;;0.85;;
78618;SDS011;67941;52.506;5.470;2023-04-15T02:10:49;3.08;;;1.38;;
78618;SDS011;67941;52.506;5.470;2023-04-15T02:13:22;2.22;;;0.90;;
78618;SDS011;67941;52.506;5.470;2023-04-15T02:15:53;2.30;;;1.08;;
78618;SDS011;67941;52.506;5.470;2023-04-15T02:18:23;1.88;;;0.50;;
78618;SDS011;67941;52.506;5.470;2023-04-15T02:20:53;1.63;;;0.70;;
78618;SDS011;67941;52.506;5.470;2023-04-15T02:23:24;2.38;;;1.00;;
78618;SDS011;67941;52.506;5.470;2023-04-15T02:25:54;3.42;;;0.68;;
78618;SDS011;67941;52.506;5.470;2023-04-15T02:28:28;2.22;;;1.00;;
78618;SDS011;67941;52.506;5.470;2023-04-15T02:33:30;1.25;;;0.45;;
78618;SDS011;67941;52.506;5.470;2023-04-15T02:36:00;2.90;;;1.10;;
78618;SDS011;67941;52.506;5.470;2023-04-15T02:38:30;1.63;;;0.50;;
78618;SDS011;67941;52.506;5.470;2023-04-15T02:41:01;3.38;;;0.93;;
78618;SDS011;67941;52.506;5.470;2023-04-15T02:43:33;3.38;;;1.30;;
78618;SDS011;67941;52.506;5.470;2023-04-15T02:46:05;2.60;;;1.02;;
78618;SDS011;67941;52.506;5.470;2023-04-15T02:48:39;3.03;;;0.80;;
78618;SDS011;67941;52.506;5.470;2023-04-15T02:51:10;4.78;;;1.60;;
78618;SDS011;67941;52.506;5.470;2023-04-15T02:53:41;2.63;;;1.30;;
78618;SDS011;67941;52.506;5.470;2023-04-15T02:56:11;3.92;;;1.50;;
78618;SDS011;67941;52.506;5.470;2023-04-15T02:58:45;1.95;;;0.63;;
78618;SDS011;67941;52.506;5.470;2023-04-15T03:01:16;5.35;;;1.58;;
78618;SDS011;67941;52.506;5.470;2023-04-15T03:03:46;1.67;;;0.88;;
78618;SDS011;67941;52.506;5.470;2023-04-15T03:06:16;1.77;;;0.70;;
78618;SDS011;67941;52.506;5.470;2023-04-15T03:08:46;2.60;;;0.88;;
78618;SDS011;67941;52.506;5.470;2023-04-15T03:11:18;1.30;;;0.43;;
78618;SDS011;67941;52.506;5.470;2023-04-15T03:13:50;1.75;;;0.65;;
78618;SDS011;67941;52.506;5.470;2023-04-15T03:16:31;2.55;;;1.02;;
78618;SDS011;67941;52.506;5.470;2023-04-15T03:19:01;1.55;;;0.55;;
78618;SDS011;67941;52.506;5.470;2023-04-15T03:21:33;2.03;;;0.98;;
78618;SDS011;67941;52.506;5.470;2023-04-15T03:24:03;1.70;;;0.75;;
78618;SDS011;67941;52.506;5.470;2023-04-15T03:26:34;4.70;;;1.83;;
78618;SDS011;67941;52.506;5.470;2023-04-15T03:29:13;2.65;;;1.17;;
78618;SDS011;67941;52.506;5.470;2023-04-15T03:31:43;3.15;;;1.30;;
78618;SDS011;67941;52.506;5.470;2023-04-15T03:34:13;2.15;;;1.00;;
78618;SDS011;67941;52.506;5.470;2023-04-15T03:36:43;2.72;;;0.90;;
78618;SDS011;67941;52.506;5.470;2023-04-15T03:39:14;4.93;;;2.22;;
78618;SDS011;67941;52.506;5.470;2023-04-15T03:41:44;3.53;;;1.40;;
78618;SDS011;67941;52.506;5.470;2023-04-15T03:44:16;2.85;;;1.27;;
78618;SDS011;67941;52.506;5.470;2023-04-15T03:46:46;3.60;;;1.20;;
78618;SDS011;67941;52.506;5.470;2023-04-15T03:49:16;3.30;;;1.10;;
78618;SDS011;67941;52.506;5.470;2023-04-15T03:51:48;3.28;;;1.92;;
78618;SDS011;67941;52.506;5.470;2023-04-15T03:54:18;3.92;;;1.58;;
78618;SDS011;67941;52.506;5.470;2023-04-15T03:56:48;4.05;;;1.33;;
78618;SDS011;67941;52.506;5.470;2023-04-15T03:59:21;2.30;;;1.00;;
78618;SDS011;67941;52.506;5.470;2023-04-15T04:01:51;4.45;;;2.00;;
78618;SDS011;67941;52.506;5.470;2023-04-15T04:04:21;3.40;;;2.03;;
78618;SDS011;67941;52.506;5.470;2023-04-15T04:06:51;3.20;;;1.35;;
78618;SDS011;67941;52.506;5.470;2023-04-15T04:09:21;4.47;;;2.65;;
78618;SDS011;67941;52.506;5.470;2023-04-15T04:11:51;2.08;;;0.88;;
78618;SDS011;67941;52.506;5.470;2023-04-15T04:14:24;4.20;;;2.88;;
78618;SDS011;67941;52.506;5.470;2023-04-15T04:16:55;2.78;;;1.30;;
78618;SDS011;67941;52.506;5.470;2023-04-15T04:19:25;3.42;;;2.08;;
78618;SDS011;67941;52.506;5.470;2023-04-15T04:21:55;2.95;;;1.33;;
78618;SDS011;67941;52.506;5.470;2023-04-15T04:24:25;4.25;;;1.38;;
78618;SDS011;67941;52.506;5.470;2023-04-15T04:26:55;4.85;;;1.88;;
78618;SDS011;67941;52.506;5.470;2023-04-15T04:29:28;3.78;;;1.20;;
78618;SDS011;67941;52.506;5.470;2023-04-15T04:34:28;4.55;;;2.15;;
78618;SDS011;67941;52.506;5.470;2023-04-15T04:36:58;5.47;;;1.88;;
78618;SDS011;67941;52.506;5.470;2023-04-15T04:39:28;4.30;;;1.50;;
78618;SDS011;67941;52.506;5.470;2023-04-15T04:41:58;7.50;;;3.42;;
78618;SDS011;67941;52.506;5.470;2023-04-15T04:44:31;3.83;;;2.13;;
78618;SDS011;67941;52.506;5.470;2023-04-15T04:47:01;3.78;;;1.52;;
78618;SDS011;67941;52.506;5.470;2023-04-15T04:49:32;5.03;;;1.58;;
78618;SDS011;67941;52.506;5.470;2023-04-15T04:52:02;5.40;;;1.88;;
78618;SDS011;67941;52.506;5.470;2023-04-15T04:54:32;4.88;;;1.80;;
78618;SDS011;67941;52.506;5.470;2023-04-15T04:57:02;2.70;;;1.23;;
78618;SDS011;67941;52.506;5.470;2023-04-15T04:59:36;3.22;;;1.27;;
78618;SDS011;67941;52.506;5.470;2023-04-15T05:02:06;2.03;;;0.82;;
78618;SDS011;67941;52.506;5.470;2023-04-15T05:04:36;3.78;;;1.98;;
78618;SDS011;67941;52.506;5.470;2023-04-15T05:07:07;4.72;;;1.60;;
78618;SDS011;67941;52.506;5.470;2023-04-15T05:09:37;2.63;;;1.02;;
78618;SDS011;67941;52.506;5.470;2023-04-15T05:12:07;2.97;;;1.73;;
78618;SDS011;67941;52.506;5.470;2023-04-15T05:14:43;6.88;;;1.63;;
78618;SDS011;67941;52.506;5.470;2023-04-15T05:19:43;8.23;;;2.35;;
78618;SDS011;67941;52.506;5.470;2023-04-15T05:22:13;4.40;;;1.88;;
78618;SDS011;67941;52.506;5.470;2023-04-15T05:24:43;3.70;;;1.25;;
78618;SDS011;67941;52.506;5.470;2023-04-15T05:27:13;5.38;;;1.55;;
78618;SDS011;67941;52.506;5.470;2023-04-15T05:29:47;1.85;;;0.88;;
78618;SDS011;67941;52.506;5.470;2023-04-15T05:32:17;2.35;;;1.05;;
78618;SDS011;67941;52.506;5.470;2023-04-15T05:34:47;3.47;;;1.40;;
78618;SDS011;67941;52.506;5.470;2023-04-15T05:37:17;3.42;;;1.08;;
78618;SDS011;67941;52.506;5.470;2023-04-15T05:39:49;3.90;;;1.50;;
78618;SDS011;67941;52.506;5.470;2023-04-15T05:42:19;3.25;;;0.95;;
78618;SDS011;67941;52.506;5.470;2023-04-15T05:44:51;2.78;;;1.02;;
78618;SDS011;67941;52.506;5.470;2023-04-15T05:47:21;1.88;;;0.70;;
78618;SDS011;67941;52.506;5.470;2023-04-15T05:49:51;5.38;;;2.03;;
78618;SDS011;67941;52.506;5.470;2023-04-15T05:52:21;2.50;;;1.10;;
78618;SDS011;67941;52.506;5.470;2023-04-15T05:54:51;4.03;;;1.45;;
78618;SDS011;67941;52.506;5.470;2023-04-15T05:57:21;5.32;;;1.42;;
78618;SDS011;67941;52.506;5.470;2023-04-15T05:59:54;3.22;;;1.15;;
78618;SDS011;67941;52.506;5.470;2023-04-15T06:02:24;3.28;;;1.13;;
78618;SDS011;67941;52.506;5.470;2023-04-15T06:04:54;4.63;;;1.85;;
78618;SDS011;67941;52.506;5.470;2023-04-15T06:07:24;6.30;;;2.05;;
78618;SDS011;67941;52.506;5.470;2023-04-15T06:09:54;3.30;;;1.50;;
78618;SDS011;67941;52.506;5.470;2023-04-15T06:12:24;3.80;;;1.30;;
78618;SDS011;67941;52.506;5.470;2023-04-15T06:14:57;6.47;;;2.70;;
78618;SDS011;67941;52.506;5.470;2023-04-15T06:17:27;5.68;;;1.80;;
78618;SDS011;67941;52.506;5.470;2023-04-15T06:19:57;5.72;;;2.00;;
78618;SDS011;67941;52.506;5.470;2023-04-15T06:22:27;3.78;;;1.50;;
78618;SDS011;67941;52.506;5.470;2023-04-15T06:24:57;5.28;;;2.60;;
78618;SDS011;67941;52.506;5.470;2023-04-15T06:27:27;3.08;;;1.27;;
78618;SDS011;67941;52.506;5.470;2023-04-15T06:30:00;2.78;;;0.95;;
78618;SDS011;67941;52.506;5.470;2023-04-15T06:32:30;4.47;;;1.45;;
78618;SDS011;67941;52.506;5.470;2023-04-15T06:35:01;4.82;;;1.25;;
78618;SDS011;67941;52.506;5.470;2023-04-15T06:37:31;3.72;;;1.08;;
78618;SDS011;67941;52.506;5.470;2023-04-15T06:40:02;4.00;;;2.17;;
78618;SDS011;67941;52.506;5.470;2023-04-15T06:42:32;4.95;;;1.80;;
78618;SDS011;67941;52.506;5.470;2023-04-15T06:45:24;2.33;;;0.95;;
78618;SDS011;67941;52.506;5.470;2023-04-15T06:50:24;3.28;;;1.30;;
78618;SDS011;67941;52.506;5.470;2023-04-15T06:52:54;4.00;;;1.40;;
78618;SDS011;67941;52.506;5.470;2023-04-15T06:55:25;4.00;;;1.63;;
78618;SDS011;67941;52.506;5.470;2023-04-15T06:57:57;6.85;;;2.47;;
78618;SDS011;67941;52.506;5.470;2023-04-15T07:00:29;3.97;;;1.38;;
78618;SDS011;67941;52.506;5.470;2023-04-15T07:05:30;4.40;;;1.58;;
78618;SDS011;67941;52.506;5.470;2023-04-15T07:08:00;6.72;;;2.22;;
78618;SDS011;67941;52.506;5.470;2023-04-15T07:10:30;5.07;;;1.95;;
78618;SDS011;67941;52.506;5.470;2023-04-15T07:13:00;7.55;;;2.75;;
78618;SDS011;67941;52.506;5.470;2023-04-15T07:15:33;7.35;;;2.63;;
78618;SDS011;67941;52.506;5.470;2023-04-15T07:20:32;7.40;;;2.80;;
78618;SDS011;67941;52.506;5.470;2023-04-15T07:23:03;6.70;;;2.58;;
78618;SDS011;67941;52.506;5.470;2023-04-15T07:25:33;5.32;;;1.98;;
78618;SDS011;67941;52.506;5.470;2023-04-15T07:28:03;6.82;;;3.03;;
78618;SDS011;67941;52.506;5.470;2023-04-15T07:30:36;6.72;;;2.72;;
78618;SDS011;67941;52.506;5.470;2023-04-15T07:33:07;10.32;;;3.58;;
78618;SDS011;67941;52.506;5.470;2023-04-15T07:35:37;10.38;;;3.75;;
78618;SDS011;67941;52.506;5.470;2023-04-15T07:38:07;7.95;;;3.90;;
78618;SDS011;67941;52.506;5.470;2023-04-15T07:40:38;8.32;;;3.55;;
78618;SDS011;67941;52.506;5.470;2023-04-15T07:43:08;8.93;;;3.80;;
78618;SDS011;67941;52.506;5.470;2023-04-15T07:45:41;7.10;;;3.25;;
78618;SDS011;67941;52.506;5.470;2023-04-15T07:50:41;10.75;;;4.50;;
78618;SDS011;67941;52.506;5.470;2023-04-15T07:53:11;8.05;;;2.75;;
78618;SDS011;67941;52.506;5.470;2023-04-15T07:55:41;8.73;;;3.63;;
78618;SDS011;67941;52.506;5.470;2023-04-15T07:58:12;10.43;;;3.95;;
78618;SDS011;67941;52.506;5.470;2023-04-15T08:00:44;8.90;;;4.10;;
78618;SDS011;67941;52.506;5.470;2023-04-15T08:03:15;7.85;;;3.28;;
78618;SDS011;67941;52.506;5.470;2023-04-15T08:05:45;6.22;;;2.72;;
78618;SDS011;67941;52.506;5.470;2023-04-15T08:08:15;5.47;;;2.30;;
78618;SDS011;67941;52.506;5.470;2023-04-15T08:10:46;4.60;;;2.05;;
78618;SDS011;67941;52.506;5.470;2023-04-15T08:13:16;5.38;;;1.85;;
78618;SDS011;67941;52.506;5.470;2023-04-15T08:16:12;3.90;;;1.70;;
78618;SDS011;67941;52.506;5.470;2023-04-15T08:18:44;5.05;;;1.90;;
78618;SDS011;67941;52.506;5.470;2023-04-15T08:21:15;6.10;;;1.83;;
78618;SDS011;67941;52.506;5.470;2023-04-15T08:23:46;4.80;;;1.55;;
78618;SDS011;67941;52.506;5.470;2023-04-15T08:26:18;4.10;;;1.70;;
78618;SDS011;67941;52.506;5.470;2023-04-15T08:28:49;5.00;;;2.00;;
78618;SDS011;67941;52.506;5.470;2023-04-15T08:31:22;3.47;;;1.40;;
78618;SDS011;67941;52.506;5.470;2023-04-15T08:33:52;3.88;;;1.65;;
78618;SDS011;67941;52.506;5.470;2023-04-15T08:36:23;3.90;;;1.67;;
78618;SDS011;67941;52.506;5.470;2023-04-15T08:38:53;3.38;;;1.65;;
78618;SDS011;67941;52.506;5.470;2023-04-15T08:41:24;5.65;;;1.98;;
78618;SDS011;67941;52.506;5.470;2023-04-15T08:43:56;5.70;;;1.90;;
78618;SDS011;67941;52.506;5.470;2023-04-15T08:46:30;4.05;;;1.52;;
78618;SDS011;67941;52.506;5.470;2023-04-15T08:49:02;4.80;;;2.13;;
78618;SDS011;67941;52.506;5.470;2023-04-15T08:51:33;4.45;;;1.48;;
78618;SDS011;67941;52.506;5.470;2023-04-15T08:54:04;4.30;;;1.73;;
78618;SDS011;67941;52.506;5.470;2023-04-15T08:56:35;4.38;;;1.58;;
78618;SDS011;67941;52.506;5.470;2023-04-15T08:59:07;5.15;;;1.90;;
78618;SDS011;67941;52.506;5.470;2023-04-15T09:01:41;4.50;;;1.85;;
78618;SDS011;67941;52.506;5.470;2023-04-15T09:04:12;3.28;;;1.73;;
78618;SDS011;67941;52.506;5.470;2023-04-15T09:06:42;5.38;;;2.17;;
78618;SDS011;67941;52.506;5.470;2023-04-15T09:09:12;4.25;;;1.80;;
78618;SDS011;67941;52.506;5.470;2023-04-15T09:11:42;4.85;;;1.55;;
78618;SDS011;67941;52.506;5.470;2023-04-15T09:14:13;3.92;;;1.63;;
78618;SDS011;67941;52.506;5.470;2023-04-15T09:16:59;4.93;;;2.03;;
78618;SDS011;67941;52.506;5.470;2023-04-15T09:19:30;4.22;;;1.60;;
78618;SDS011;67941;52.506;5.470;2023-04-15T09:22:02;3.45;;;1.70;;
78618;SDS011;67941;52.506;5.470;2023-04-15T09:24:33;4.82;;;1.58;;
78618;SDS011;67941;52.506;5.470;2023-04-15T09:27:07;3.47;;;1.50;;
78618;SDS011;67941;52.506;5.470;2023-04-15T09:29:38;6.20;;;1.88;;
78618;SDS011;67941;52.506;5.470;2023-04-15T09:32:13;4.47;;;1.58;;
78618;SDS011;67941;52.506;5.470;2023-04-15T09:34:44;4.22;;;1.95;;
78618;SDS011;67941;52.506;5.470;2023-04-15T09:37:14;4.28;;;1.55;;
78618;SDS011;67941;52.506;5.470;2023-04-15T09:39:46;4.30;;;1.70;;
78618;SDS011;67941;52.506;5.470;2023-04-15T09:42:18;4.30;;;1.60;;
78618;SDS011;67941;52.506;5.470;2023-04-15T09:44:50;6.70;;;2.30;;
78618;SDS011;67941;52.506;5.470;2023-04-15T09:47:28;3.97;;;1.60;;
78618;SDS011;67941;52.506;5.470;2023-04-15T09:49:59;3.95;;;1.40;;
78618;SDS011;67941;52.506;5.470;2023-04-15T09:52:30;3.65;;;1.30;;
78618;SDS011;67941;52.506;5.470;2023-04-15T09:55:17;3.95;;;1.55;;
78618;SDS011;67941;52.506;5.470;2023-04-15T09:57:47;3.53;;;1.52;;
78618;SDS011;67941;52.506;5.470;2023-04-15T10:00:17;4.05;;;1.50;;
78618;SDS011;67941;52.506;5.470;2023-04-15T10:02:50;2.72;;;1.05;;
78618;SDS011;67941;52.506;5.470;2023-04-15T10:05:20;1.85;;;0.80;;
78618;SDS011;67941;52.506;5.470;2023-04-15T10:07:51;2.88;;;1.15;;
78618;SDS011;67941;52.506;5.470;2023-04-15T10:10:21;3.65;;;1.70;;
78618;SDS011;67941;52.506;5.470;2023-04-15T10:12:51;1.83;;;0.85;;
78618;SDS011;67941;52.506;5.470;2023-04-15T10:15:22;2.95;;;1.20;;
78618;SDS011;67941;52.506;5.470;2023-04-15T10:17:56;2.40;;;1.10;;
78618;SDS011;67941;52.506;5.470;2023-04-15T10:20:28;2.88;;;0.82;;
78618;SDS011;67941;52.506;5.470;2023-04-15T10:22:59;3.85;;;1.00;;
78618;SDS011;67941;52.506;5.470;2023-04-15T10:25:30;2.10;;;0.70;;
78618;SDS011;67941;52.506;5.470;2023-04-15T10:28:02;3.38;;;1.08;;
78618;SDS011;67941;52.506;5.470;2023-04-15T10:30:34;4.50;;;1.67;;
78618;SDS011;67941;52.506;5.470;2023-04-15T10:33:08;4.28;;;1.10;;
78618;SDS011;67941;52.506;5.470;2023-04-15T10:35:39;4.22;;;1.20;;
78618;SDS011;67941;52.506;5.470;2023-04-15T10:41:12;3.58;;;2.53;;
78618;SDS011;67941;52.506;5.470;2023-04-15T10:43:47;4.00;;;1.25;;
78618;SDS011;67941;52.506;5.470;2023-04-15T10:46:22;2.28;;;0.80;;
78618;SDS011;67941;52.506;5.470;2023-04-15T10:48:57;3.22;;;1.63;;
78618;SDS011;67941;52.506;5.470;2023-04-15T10:51:37;2.65;;;0.98;;
78618;SDS011;67941;52.506;5.470;2023-04-15T10:54:12;2.58;;;0.93;;
78618;SDS011;67941;52.506;5.470;2023-04-15T10:56:44;2.83;;;1.35;;
78618;SDS011;67941;52.506;5.470;2023-04-15T10:59:19;3.08;;;1.10;;
78618;SDS011;67941;52.506;5.470;2023-04-15T11:01:54;3.47;;;1.08;;
78618;SDS011;67941;52.506;5.470;2023-04-15T11:07:32;2.20;;;0.80;;
78618;SDS011;67941;52.506;5.470;2023-04-15T11:13:20;3.00;;;1.00;;
78618;SDS011;67941;52.506;5.470;2023-04-15T11:15:56;2.42;;;0.90;;
78618;SDS011;67941;52.506;5.470;2023-04-15T11:18:28;3.10;;;1.13;;
78618;SDS011;67941;52.506;5.470;2023-04-15T11:21:05;2.30;;;0.90;;
78618;SDS011;67941;52.506;5.470;2023-04-15T11:23:37;2.70;;;1.00;;
78618;SDS011;67941;52.506;5.470;2023-04-15T11:26:09;1.83;;;0.90;;
78618;SDS011;67941;52.506;5.470;2023-04-15T11:28:52;2.03;;;0.70;;
78618;SDS011;67941;52.506;5.470;2023-04-15T11:31:23;2.22;;;1.08;;
78618;SDS011;67941;52.506;5.470;2023-04-15T11:33:56;2.90;;;0.95;;
78618;SDS011;67941;52.506;5.470;2023-04-15T11:36:30;2.10;;;0.70;;
78618;SDS011;67941;52.506;5.470;2023-04-15T11:39:00;1.85;;;0.75;;
78618;SDS011;67941;52.506;5.470;2023-04-15T11:41:31;1.38;;;0.50;;
78618;SDS011;67941;52.506;5.470;2023-04-15T11:44:01;2.05;;;0.70;;
78618;SDS011;67941;52.506;5.470;2023-04-15T11:46:31;4.00;;;1.40;;
78618;SDS011;67941;52.506;5.470;2023-04-15T11:49:01;2.00;;;0.88;;
78618;SDS011;67941;52.506;5.470;2023-04-15T11:51:34;2.45;;;0.75;;
78618;SDS011;67941;52.506;5.470;2023-04-15T11:54:03;3.88;;;1.17;;
78618;SDS011;67941;52.506;5.470;2023-04-15T11:56:32;1.30;;;1.02;;
78618;SDS011;67941;52.506;5.470;2023-04-15T11:59:00;4.05;;;1.27;;
78618;SDS011;67941;52.506;5.470;2023-04-15T12:01:30;2.30;;;0.57;;
78618;SDS011;67941;52.506;5.470;2023-04-15T12:03:59;1.92;;;1.20;;
78618;SDS011;67941;52.506;5.470;2023-04-15T12:06:30;2.50;;;0.57;;
78618;SDS011;67941;52.506;5.470;2023-04-15T12:09:06;3.05;;;1.10;;
78618;SDS011;67941;52.506;5.470;2023-04-15T12:11:37;1.20;;;0.73;;
78618;SDS011;67941;52.506;5.470;2023-04-15T12:14:08;1.60;;;0.80;;
78618;SDS011;67941;52.506;5.470;2023-04-15T12:16:40;1.75;;;0.68;;
78618;SDS011;67941;52.506;5.470;2023-04-15T12:19:10;1.40;;;0.63;;
78618;SDS011;67941;52.506;5.470;2023-04-15T12:21:44;2.03;;;0.70;;
78618;SDS011;67941;52.506;5.470;2023-04-15T12:24:14;1.67;;;0.57;;
78618;SDS011;67941;52.506;5.470;2023-04-15T12:26:47;1.33;;;0.77;;
78618;SDS011;67941;52.506;5.470;2023-04-15T12:29:18;1.20;;;0.52;;
78618;SDS011;67941;52.506;5.470;2023-04-15T12:31:48;1.25;;;0.52;;
78618;SDS011;67941;52.506;5.470;2023-04-15T12:34:25;1.42;;;0.50;;
78618;SDS011;67941;52.506;5.470;2023-04-15T12:36:59;1.98;;;0.35;;
78618;SDS011;67941;52.506;5.470;2023-04-15T12:39:29;1.85;;;0.70;;
78618;SDS011;67941;52.506;5.470;2023-04-15T12:41:59;1.35;;;0.45;;
78618;SDS011;67941;52.506;5.470;2023-04-15T12:44:28;2.22;;;0.47;;
78618;SDS011;67941;52.506;5.470;2023-04-15T12:46:58;0.90;;;0.45;;
78618;SDS011;67941;52.506;5.470;2023-04-15T12:49:27;2.00;;;0.38;;
78618;SDS011;67941;52.506;5.470;2023-04-15T12:52:00;2.30;;;0.60;;
78618;SDS011;67941;52.506;5.470;2023-04-15T12:54:30;1.90;;;0.63;;
78618;SDS011;67941;52.506;5.470;2023-04-15T12:57:00;1.33;;;0.68;;
78618;SDS011;67941;52.506;5.470;2023-04-15T12:59:30;1.10;;;0.40;;
78618;SDS011;67941;52.506;5.470;2023-04-15T13:01:59;1.00;;;0.40;;
78618;SDS011;67941;52.506;5.470;2023-04-15T13:04:28;2.00;;;0.40;;
78618;SDS011;67941;52.506;5.470;2023-04-15T13:07:00;1.75;;;0.55;;
78618;SDS011;67941;52.506;5.470;2023-04-15T13:09:30;3.80;;;0.70;;
78618;SDS011;67941;52.506;5.470;2023-04-15T13:11:59;1.05;;;0.40;;
78618;SDS011;67941;52.506;5.470;2023-04-15T13:14:29;1.35;;;1.00;;
78618;SDS011;67941;52.506;5.470;2023-04-15T13:16:58;0.93;;;0.45;;
78618;SDS011;67941;52.506;5.470;2023-04-15T13:19:28;0.80;;;0.30;;
78618;SDS011;67941;52.506;5.470;2023-04-15T13:21:59;1.85;;;1.00;;
78618;SDS011;67941;52.506;5.470;2023-04-15T13:24:28;3.33;;;0.57;;
78618;SDS011;67941;52.506;5.470;2023-04-15T13:26:57;2.28;;;0.73;;
78618;SDS011;67941;52.506;5.470;2023-04-15T13:29:26;1.40;;;0.50;;
78618;SDS011;67941;52.506;5.470;2023-04-15T13:31:55;1.85;;;0.47;;
78618;SDS011;67941;52.506;5.470;2023-04-15T13:34:25;1.08;;;0.75;;
78618;SDS011;67941;52.506;5.470;2023-04-15T13:36:54;3.10;;;1.27;;
78618;SDS011;67941;52.506;5.470;2023-04-15T13:39:25;1.70;;;0.60;;
78618;SDS011;67941;52.506;5.470;2023-04-15T13:41:55;2.80;;;0.98;;
78618;SDS011;67941;52.506;5.470;2023-04-15T13:44:23;1.52;;;0.50;;
78618;SDS011;67941;52.506;5.470;2023-04-15T13:46:52;2.05;;;0.65;;
78618;SDS011;67941;52.506;5.470;2023-04-15T13:49:21;3.60;;;1.30;;
78618;SDS011;67941;52.506;5.470;2023-04-15T13:51:50;1.15;;;0.60;;
78618;SDS011;67941;52.506;5.470;2023-04-15T13:54:19;2.75;;;1.15;;
78618;SDS011;67941;52.506;5.470;2023-04-15T13:56:50;2.33;;;0.50;;
78618;SDS011;67941;52.506;5.470;2023-04-15T13:59:20;1.58;;;0.50;;
78618;SDS011;67941;52.506;5.470;2023-04-15T14:01:49;2.10;;;0.43;;
78618;SDS011;67941;52.506;5.470;2023-04-15T14:04:18;1.83;;;0.57;;
78618;SDS011;67941;52.506;5.470;2023-04-15T14:06:47;4.35;;;0.90;;
78618;SDS011;67941;52.506;5.470;2023-04-15T14:09:16;3.08;;;0.60;;
78618;SDS011;67941;52.506;5.470;2023-04-15T14:11:46;3.85;;;0.82;;
78618;SDS011;67941;52.506;5.470;2023-04-15T14:14:17;2.33;;;0.50;;
78618;SDS011;67941;52.506;5.470;2023-04-15T14:16:46;1.20;;;0.38;;
78618;SDS011;67941;52.506;5.470;2023-04-15T14:19:15;2.15;;;0.35;;
78618;SDS011;67941;52.506;5.470;2023-04-15T14:21:44;1.48;;;0.55;;
78618;SDS011;67941;52.506;5.470;2023-04-15T14:24:13;2.65;;;0.50;;
78618;SDS011;67941;52.506;5.470;2023-04-15T14:26:41;2.47;;;0.40;;
78618;SDS011;67941;52.506;5.470;2023-04-15T14:29:11;1.88;;;0.73;;
78618;SDS011;67941;52.506;5.470;2023-04-15T14:31:42;0.93;;;0.40;;
78618;SDS011;67941;52.506;5.470;2023-04-15T14:34:16;5.45;;;0.40;;
78618;SDS011;67941;52.506;5.470;2023-04-15T14:36:46;4.63;;;0.43;;
78618;SDS011;67941;52.506;5.470;2023-04-15T14:39:15;1.90;;;0.55;;
78618;SDS011;67941;52.506;5.470;2023-04-15T14:41:44;3.20;;;0.50;;
78618;SDS011;67941;52.506;5.470;2023-04-15T14:44:13;1.25;;;1.02;;
78618;SDS011;67941;52.506;5.470;2023-04-15T14:46:44;0.75;;;0.22;;
78618;SDS011;67941;52.506;5.470;2023-04-15T14:49:13;4.43;;;0.30;;
78618;SDS011;67941;52.506;5.470;2023-04-15T14:51:42;2.60;;;0.25;;
78618;SDS011;67941;52.506;5.470;2023-04-15T14:54:11;1.08;;;0.50;;
78618;SDS011;67941;52.506;5.470;2023-04-15T14:56:40;5.97;;;0.63;;
78618;SDS011;67941;52.506;5.470;2023-04-15T14:59:09;6.13;;;0.70;;
78618;SDS011;67941;52.506;5.470;2023-04-15T15:01:38;1.77;;;0.25;;
78618;SDS011;67941;52.506;5.470;2023-04-15T15:04:11;2.88;;;0.70;;
78618;SDS011;67941;52.506;5.470;2023-04-15T15:06:40;8.82;;;0.68;;
78618;SDS011;67941;52.506;5.470;2023-04-15T15:09:09;1.90;;;0.77;;
78618;SDS011;67941;52.506;5.470;2023-04-15T15:11:37;2.67;;;0.50;;
78618;SDS011;67941;52.506;5.470;2023-04-15T15:14:06;0.95;;;0.30;;
78618;SDS011;67941;52.506;5.470;2023-04-15T15:16:35;2.65;;;0.45;;
78618;SDS011;67941;52.506;5.470;2023-04-15T15:19:05;2.78;;;0.20;;
78618;SDS011;67941;52.506;5.470;2023-04-15T15:21:36;2.90;;;0.30;;
78618;SDS011;67941;52.506;5.470;2023-04-15T15:24:05;3.45;;;0.50;;
78618;SDS011;67941;52.506;5.470;2023-04-15T15:26:34;2.20;;;0.40;;
78618;SDS011;67941;52.506;5.470;2023-04-15T15:29:02;1.35;;;0.32;;
78618;SDS011;67941;52.506;5.470;2023-04-15T15:31:33;3.45;;;0.98;;
78618;SDS011;67941;52.506;5.470;2023-04-15T15:34:02;2.35;;;0.57;;
78618;SDS011;67941;52.506;5.470;2023-04-15T15:36:31;2.58;;;0.30;;
78618;SDS011;67941;52.506;5.470;2023-04-15T15:39:02;2.67;;;0.50;;